Terminal Aerodrome Forecast
Issued by NWS Brownsville, TX

Home | Current Version | Previous Version | Text Only | Print | Product List | Glossary On
Versions: 1 2 3 4 5 6 7 8 9 10 11 12 13 14 15 16 17 18 19 20
306
FTUS44 KBRO 052320
TAFHRL
TAF
KHRL 052320Z 0600/0624 12014KT P6SM BKN050 OVC070
     FM060100 11006KT P6SM BKN040
     FM060500 13004KT 5SM BR OVC035
     FM060800 00000KT P6SM SCT025 OVC060
     FM061400 33015G24KT P6SM SKC
     FM061800 33020G27KT P6SM SKC=

USA.gov is the U.S. government's official web portal to all federal, state and local government web resources and services.